Aérodrome :
LOGIN :

S'inscrire | Disclaimer

   EN    FR    IT 

 










Légende :    VFR   VFR Marginal   IFR   IFR Intensif   IFR Très Intensif
Visi : 
Plafond : 
>= 8 km
>= 3000ft
5 à 8 km
1000 à 3000 ft
1500m à 5 km
500 à 1000 ft
800 à 1500m
200 à 500 ft
< 800m
< 200 ft
Symboles :   Orages  Brouillard  Fortes neiges  Fortes précipitations  Vent > 20 kt
SIGMETs :   Divers  Orages  Givrage  Turbulence  Onde Orograph.  Cendres Volcan.







- Altitude de l'aérodrome : 1455 ft


ETIH - Hohenfels Army Air Field

DERNIER METAR :
  • 281058Z AUTO 00000KT 9999 FEW043 SCT100 BKN130 BKN170 22/16 A2962 RMK AO2 RAB33E47 PRESFR SLP016

METARs EXPIRÉS :
  • 281047Z AUTO 24005KT 9999 FEW030 SCT065 BKN090 21/16 A2964 RMK AO2 RAB33E47 SLP024
  • 281033Z AUTO 24006KT 9999 +RA FEW027 SCT034 SCT046 OVC085 22/15 A2964 RMK AO2 RAB33 SLP024
  • 280958Z AUTO 26007KT 9999 SCT022 BKN032 BKN090 22/16 A2963 RMK AO2 RAE00 SLP019
  • 280949Z AUTO 21004KT 9999 SCT021 BKN033 22/16 A2963 RMK AO2 RAE00 SLP019
  • 280932Z AUTO 31006KT 9999 SCT019 BKN023 22/16 A2963 RMK AO2 RAE00 BKN V SCT SLP019
  • 280919Z AUTO 00000KT 9999 SCT014 21/17 A2963 RMK AO2 RAE00 SLP019
  • 280917Z AUTO 33003KT 9999 BKN014 21/16 A2963 RMK AO2 RAE00 CIG 013V036 SLP019
  • 280908Z AUTO 00000KT 9999 SCT013 BKN036 20/17 A2963 RMK AO2 RAE00 SLP021
  • 280900Z AUTO 00000KT 9999 BKN013 BKN035 20/17 A2963 RMK AO2 RAE00 CIG 011V016 SLP021

Prévision TAF périmée.
Pas de NOTAMs connus pour ce terrain.
2 SIGMETs publiés pour la FIR München (EDMM) :
 
Orages noyés dans la masse avec grêle
EDMM SIGMET 3 VALID 281200/281330 EDZM
EDMM MUNCHEN FIR EMBD TSGR OBS APRX 20NM WID LINE BTN N5150 E01201 - N5100 E01330 TOP FL400 MOV N NC=
Orages noyés dans la masse
EDMM SIGMET 2 VALID 281004/281200 EDZM
EDMM MUNCHEN FIR EMBD TS OBS WI N5155 E01209 - N5130 E01330 - N5030 E01245 - N5100 E01040 - N5123 E01027 - N5152 E01112 - N5155 E01209 TOP FL400 MOV N NC=



MET'MAP, la Météo Aéronautique d'un coup d'oeil ! - Copyright ORBIFLY Décembre 2007 - Disclaimer

ORBIFLY MET'MAP TEAM :

Programmation & Développement : Alexandra Zaïnal
Conception & Développement : Baudouin d'Aumeries
Co-Programmation & Développement : Marc-Olivier Méhu
Soutien technique & logistique : Manuel Goepfert

Contact : metmap@orbifly.com




SOURCES & CREDITS :

   NOAA